This is the latest recevied weather packets stored in our database for station/object SP1BMW-13. If no packets are shown the sender has not sent any weather packets the latest 10 day(s).
| Time | Temp. | Humidity | Pressure | Rain* | Wind** | Luminosity | Snow |
|---|---|---|---|---|---|---|---|
| 1788070176 | 20° C | 70% | 1008 hPa | 0 mm | 0.45 m/s, 58° | 91 W/m² | - |
| 1788070116 | 20° C | 70% | 1008.1 hPa | 0 mm | 0 m/s | 94 W/m² | - |
| 1788070057 | 20° C | 71% | 1008.2 hPa | 0 mm | 0 m/s | 98 W/m² | - |
| 1788069997 | 19.44° C | 70% | 1008.1 hPa | 0 mm | 0 m/s | 99 W/m² | - |
| 1788069936 | 19.44° C | 70% | 1008.1 hPa | 0 mm | 0 m/s | 99 W/m² | - |
| 1788069876 | 19.44° C | 70% | 1008.2 hPa | 0 mm | 0.89 m/s, 356° | 99 W/m² | - |
| 1788069816 | 19.44° C | 70% | 1008.2 hPa | 0 mm | 0.45 m/s, 342° | 98 W/m² | - |
| 1788069760 | 19.44° C | 71% | 1008.1 hPa | 0 mm | 0.45 m/s, 39° | 95 W/m² | - |
| 1788069697 | 19.44° C | 72% | 1008.1 hPa | 0 mm | 0.45 m/s, 31° | 91 W/m² | - |
| 1788069639 | 19.44° C | 71% | 1008.3 hPa | 0 mm | 0 m/s | 89 W/m² | - |
| 1788069576 | 19.44° C | 70% | 1008.1 hPa | 0 mm | 0.45 m/s, 28° | 89 W/m² | - |
| 1788069517 | 19.44° C | 71% | 1008 hPa | 0 mm | 0.89 m/s, 45° | 87 W/m² | - |
| 1788069457 | 19.44° C | 71% | 1008.2 hPa | 0 mm | 0 m/s | 78 W/m² | - |
| 1788069399 | 19.44° C | 72% | 1008.2 hPa | 0 mm | 0 m/s | 71 W/m² | - |
| 1788069336 | 19.44° C | 70% | 1008.2 hPa | 0 mm | 0.45 m/s, 109° | 69 W/m² | - |
| 1788069277 | 19.44° C | 70% | 1008.3 hPa | 0 mm | 0.89 m/s, 131° | 72 W/m² | - |
| 1788069216 | 19.44° C | 71% | 1008.1 hPa | 0 mm | 0 m/s | 78 W/m² | - |
| 1788069156 | 19.44° C | 71% | 1008.2 hPa | 0 mm | 0.45 m/s, 165° | 84 W/m² | - |
| 1788069096 | 19.44° C | 71% | 1008.2 hPa | 0 mm | 0.45 m/s, 3° | 88 W/m² | - |
| 1788069036 | 19.44° C | 71% | 1008.2 hPa | 0 mm | 0.45 m/s, 14° | 90 W/m² | - |
| 1788068979 | 19.44° C | 71% | 1008.3 hPa | 0 mm | 0 m/s | 87 W/m² | - |
| 1788068916 | 19.44° C | 71% | 1008.3 hPa | 0 mm | 0.45 m/s, 32° | 80 W/m² | - |
| 1788068856 | 18.89° C | 71% | 1008.2 hPa | 0 mm | 0.45 m/s, 38° | 73 W/m² | - |
| 1788068802 | 18.89° C | 71% | 1008.3 hPa | 0 mm | 0.45 m/s, 46° | 68 W/m² | - |
| 1788068737 | 18.89° C | 71% | 1008.4 hPa | 0 mm | 0.45 m/s, 40° | 64 W/m² | - |
* Rain latest hour (hover to see other rain measurements)
** Current wind speed in m/s (hover to see current wind gust speed)